createdAt,value
2022-11-18T04:56:15.336Z,87.77
2022-11-18T04:58:41.850Z,81.47
2022-11-18T05:01:08.513Z,72.50
2022-11-18T05:03:35.053Z,76.57
2022-11-18T05:06:02.106Z,71.55
2022-11-18T05:08:28.598Z,65.70
2022-11-18T05:11:15.051Z,72.53
2022-11-18T05:13:41.571Z,72.13
2022-11-18T05:16:08.035Z,69.93
2022-11-18T05:18:37.410Z,71.53
2022-11-18T05:21:07.121Z,75.30
2022-11-18T05:23:36.122Z,69.20
2022-11-18T05:26:04.392Z,65.03
2022-11-18T05:28:30.942Z,69.57
2022-11-18T05:30:57.407Z,80.80
2022-11-18T05:33:23.913Z,73.67
2022-11-18T05:35:54.934Z,82.60
2022-11-18T05:38:21.837Z,79.28
2022-11-18T05:40:48.333Z,77.88
2022-11-18T05:43:14.844Z,87.05
2022-11-18T05:45:41.573Z,70.00
2022-11-18T05:48:08.257Z,74.93
2022-11-18T05:50:36.731Z,74.38
2022-11-18T05:53:04.387Z,67.45
2022-11-18T05:55:45.959Z,67.70
2022-11-18T05:58:12.445Z,80.93
2022-11-18T06:00:39.003Z,82.50
2022-11-18T06:03:10.093Z,84.32
2022-11-18T06:05:36.663Z,68.07
2022-11-18T06:08:03.173Z,78.10
2022-11-18T06:10:32.485Z,75.23
2022-11-18T06:13:03.399Z,79.85
2022-11-18T06:15:40.093Z,70.10
2022-11-18T06:18:10.273Z,60.40
2022-11-18T06:20:38.201Z,56.60
2022-11-18T06:23:04.798Z,55.43
2022-11-18T06:25:31.667Z,54.65
2022-11-18T06:28:00.532Z,57.72
2022-11-18T06:30:27.203Z,50.90
2022-11-18T06:32:53.890Z,56.30
2022-11-18T06:35:20.542Z,50.23
2022-11-18T06:37:47.202Z,54.95
2022-11-18T06:40:13.867Z,55.40
2022-11-18T06:42:59.479Z,50.50
2022-11-18T06:45:26.079Z,49.58
2022-11-18T06:47:57.099Z,47.73
2022-11-18T06:50:23.886Z,54.20
2022-11-18T06:52:50.631Z,51.42
2022-11-18T06:55:17.141Z,47.60
2022-11-18T06:57:43.621Z,52.20
2022-11-18T07:00:10.763Z,51.53
2022-11-18T07:02:37.473Z,72.20
2022-11-18T07:05:05.650Z,60.90
2022-11-18T07:07:38.958Z,66.10
2022-11-18T07:10:08.946Z,59.42
2022-11-18T07:12:35.435Z,52.97
2022-11-18T07:15:01.942Z,53.95
2022-11-18T07:17:30.471Z,45.55
2022-11-18T07:19:56.939Z,49.03
2022-11-18T07:22:23.523Z,50.42
2022-11-18T07:24:50.011Z,51.67
2022-11-18T07:27:16.685Z,49.55
2022-11-18T07:29:43.245Z,46.97
2022-11-18T07:32:09.888Z,38.95
2022-11-18T07:34:36.502Z,45.22
2022-11-18T07:37:06.398Z,44.93
2022-11-18T07:39:32.897Z,45.30
2022-11-18T07:41:59.532Z,42.78
2022-11-18T07:44:26.071Z,44.75
2022-11-18T07:46:52.554Z,49.15
2022-11-18T07:49:19.374Z,43.00
2022-11-18T07:51:46.298Z,48.58
2022-11-18T07:54:16.583Z,40.60
2022-11-18T07:56:43.715Z,41.85
2022-11-18T07:59:10.273Z,42.30
2022-11-18T08:01:37.013Z,44.43
2022-11-18T08:04:09.724Z,47.53
2022-11-18T08:06:37.408Z,38.65
2022-11-18T08:09:05.103Z,39.33
2022-11-18T08:11:31.894Z,44.00
2022-11-18T08:13:58.442Z,37.63
2022-11-18T08:16:28.469Z,38.97
2022-11-18T08:18:55.769Z,45.97
2022-11-18T08:21:23.178Z,42.53
2022-11-18T08:23:55.005Z,44.95
2022-11-18T08:26:21.875Z,41.13
2022-11-18T08:28:48.887Z,37.90
2022-11-18T08:31:26.158Z,42.03
2022-11-18T08:34:04.175Z,37.22
2022-11-18T08:36:34.855Z,45.75
2022-11-18T08:39:03.825Z,42.57
2022-11-18T08:41:38.905Z,42.28
2022-11-18T08:44:06.509Z,41.90
2022-11-18T08:46:33.483Z,40.13
2022-11-18T08:49:00.442Z,43.42
2022-11-18T08:51:27.036Z,40.10
2022-11-18T08:53:56.174Z,35.38
2022-11-18T08:56:24.186Z,38.75
2022-11-18T08:58:51.476Z,38.75
2022-11-18T09:01:18.491Z,41.60
2022-11-18T09:03:48.594Z,37.50
2022-11-18T09:06:18.335Z,37.83
2022-11-18T09:08:46.696Z,35.03
2022-11-18T09:11:15.354Z,36.10
2022-11-18T09:16:30.371Z,31.47
2022-11-18T09:18:57.788Z,35.00
2022-11-18T09:21:25.325Z,34.13
2022-11-18T09:23:52.028Z,36.47
2022-11-18T09:26:24.071Z,31.75
2022-11-18T09:28:53.963Z,31.60
2022-11-18T09:31:20.658Z,32.75
2022-11-18T09:33:47.542Z,30.60
2022-11-18T09:36:21.353Z,31.20
2022-11-18T09:38:53.064Z,32.55
2022-11-18T09:41:42.003Z,34.27
2022-11-18T09:44:34.829Z,29.65
2022-11-18T09:47:19.353Z,26.48
2022-11-18T09:49:46.594Z,28.17
2022-11-18T09:52:13.085Z,29.08
2022-11-18T09:54:40.108Z,26.33
2022-11-18T09:57:34.089Z,27.45
2022-11-18T10:00:01.522Z,31.20
2022-11-18T10:02:46.629Z,28.00
2022-11-18T10:05:22.231Z,27.52
2022-11-18T10:08:01.901Z,27.07
2022-11-18T10:10:38.542Z,29.58
2022-11-18T10:13:15.894Z,35.28
2022-11-18T10:16:04.068Z,37.15
2022-11-18T10:18:59.713Z,37.63
2022-11-18T10:21:57.289Z,31.73
2022-11-18T10:24:25.800Z,34.20
2022-11-18T10:27:00.085Z,39.67
2022-11-18T10:29:29.010Z,34.10
2022-11-18T10:32:06.586Z,34.95
2022-11-18T10:34:35.285Z,44.57
2022-11-18T10:37:23.599Z,35.55
2022-11-18T10:40:01.942Z,33.70
2022-11-18T10:42:38.002Z,37.47
2022-11-18T10:45:24.965Z,35.33
2022-11-18T10:48:15.559Z,35.93
2022-11-18T10:50:44.679Z,31.83
2022-11-18T10:53:31.528Z,37.85
2022-11-18T10:56:06.829Z,36.85
2022-11-18T10:58:39.160Z,34.53
2022-11-18T11:01:08.373Z,37.67
2022-11-18T11:03:42.348Z,34.80
2022-11-18T11:06:40.355Z,36.45
2022-11-18T11:09:28.222Z,34.72
2022-11-18T11:12:15.881Z,33.97
2022-11-18T11:14:52.296Z,29.27
2022-11-18T11:17:23.014Z,32.80
2022-11-18T11:20:10.993Z,35.55
2022-11-18T11:22:37.591Z,31.52
2022-11-18T11:25:11.453Z,30.38
2022-11-18T15:38:09.307Z,32.42
2022-11-18T16:45:29.423Z,39.90
2022-11-18T17:15:03.130Z,35.25
2022-11-18T17:25:05.634Z,32.75
2022-11-18T17:27:32.186Z,35.47
2022-11-18T17:33:40.289Z,36.58
2022-11-18T17:36:12.302Z,36.20
2022-11-18T17:38:40.809Z,35.45
2022-11-18T17:41:09.165Z,34.25
2022-11-18T17:43:35.669Z,35.30
2022-11-18T17:46:02.815Z,34.90
2022-11-18T17:48:30.484Z,35.23
2022-11-18T17:51:04.954Z,33.35
2022-11-18T17:53:32.580Z,34.10
2022-11-18T17:56:03.658Z,34.03
2022-11-18T17:58:30.497Z,33.67
2022-11-18T18:00:57.089Z,37.03
2022-11-18T18:03:23.644Z,35.42
2022-11-18T18:05:50.094Z,35.42
2022-11-18T18:08:16.543Z,32.28
2022-11-18T18:10:43.112Z,36.13
2022-11-18T18:13:28.675Z,36.57
2022-11-18T18:16:00.877Z,34.53
2022-11-18T18:18:27.637Z,29.65
2022-11-18T18:20:54.323Z,32.00
2022-11-18T18:23:20.875Z,27.20
2022-11-18T18:25:47.445Z,34.13
2022-11-18T18:28:13.912Z,33.33
2022-11-18T18:30:40.389Z,34.70
2022-11-18T18:33:06.900Z,32.47
2022-11-18T18:35:33.407Z,33.33
2022-11-18T18:38:00.269Z,35.67
2022-11-18T18:40:27.754Z,35.30
2022-11-18T18:42:54.238Z,37.10
2022-11-18T18:45:39.439Z,39.40
2022-11-18T18:48:05.927Z,37.42
2022-11-18T18:50:32.773Z,38.97
2022-11-18T18:52:59.304Z,37.17
2022-11-18T18:55:25.770Z,38.05
2022-11-18T18:57:52.359Z,37.33
2022-11-18T19:00:19.089Z,35.55
2022-11-18T19:02:45.662Z,40.17
2022-11-18T19:05:12.171Z,35.42
2022-11-18T19:07:38.698Z,39.60
2022-11-18T19:10:07.347Z,41.58
2022-11-18T19:12:51.895Z,36.67
2022-11-18T19:15:20.217Z,41.30
2022-11-18T19:17:47.141Z,40.58
2022-11-18T19:20:32.770Z,37.22
2022-11-18T19:23:03.542Z,38.35
2022-11-18T19:25:34.850Z,37.50
2022-11-18T19:28:01.598Z,38.97
2022-11-18T19:30:28.789Z,34.22
2022-11-18T19:32:56.351Z,34.83
2022-11-18T19:35:23.099Z,35.88
2022-11-18T19:37:49.602Z,36.60
2022-11-18T19:40:16.522Z,35.80
2022-11-18T19:42:43.033Z,34.65
2022-11-18T19:45:10.469Z,28.63
2022-11-18T19:47:37.278Z,30.17
2022-11-18T19:50:07.721Z,30.75
2022-11-18T19:52:34.245Z,30.37
2022-11-18T19:55:00.783Z,26.45
2022-11-18T19:57:27.240Z,28.95
2022-11-18T19:59:54.088Z,28.70
2022-11-18T20:02:20.650Z,25.25
2022-11-18T20:05:07.107Z,27.47
2022-11-18T20:07:34.667Z,23.55
2022-11-18T20:10:01.264Z,22.30
2022-11-18T20:12:28.538Z,20.83
2022-11-18T20:14:55.027Z,22.30
2022-11-18T20:17:23.040Z,18.13
2022-11-18T20:19:49.530Z,18.45
2022-11-18T20:22:16.062Z,18.15
2022-11-18T20:24:42.561Z,18.67
2022-11-18T20:27:09.042Z,17.48
2022-11-18T20:29:35.562Z,18.53
2022-11-18T20:32:02.085Z,21.92
2022-11-18T20:34:28.750Z,17.52
2022-11-18T20:36:55.329Z,16.08
2022-11-18T20:39:22.053Z,15.73
2022-11-18T20:42:07.240Z,14.20
2022-11-18T20:44:33.717Z,17.98
2022-11-18T20:47:00.364Z,15.65
2022-11-18T20:49:26.885Z,16.20
2022-11-18T20:51:53.382Z,14.07
2022-11-18T20:54:19.834Z,13.40
2022-11-18T20:56:46.811Z,12.55
